Time;durP1;ratioP1;P1;durP2;ratioP2;P2;SDS_P1;SDS_P2;PMS_P1;PMS_P2;Temp;Humidity;BMP_temperature;BMP_pressure;BME280_temperature;BME280_humidity;BME280_pressure;Samples;Min_cycle;Max_cycle;Signal;HPM_P1;HPM_P2
2022/03/25 00:02:24;;;;;;;87.93;41.55;;;;;;;6.25;61.66;101155.22;5066798;28;20383;-68
2022/03/25 00:04:50;;;;;;;93.13;41.92;;;;;;;6.24;62.22;101155.28;5065005;28;20035;-66
2022/03/25 00:07:16;;;;;;;93.72;42.28;;;;;;;6.23;61.84;101149.22;5066023;28;20028;-69
2022/03/25 00:09:41;;;;;;;84.75;41.88;;;;;;;6.18;62.15;101150.28;5064750;28;20048;-68
2022/03/25 00:12:07;;;;;;;79.80;41.50;;;;;;;6.15;62.39;101145.16;5064878;28;20040;-68
2022/03/25 00:14:32;;;;;;;86.70;41.33;;;;;;;6.12;62.19;101142.66;5063602;28;20458;-69
2022/03/25 00:16:57;;;;;;;89.95;40.85;;;;;;;6.09;62.44;101148.00;5065950;28;20036;-68
2022/03/25 00:19:23;;;;;;;96.18;43.65;;;;;;;6.00;61.91;101156.97;5048486;28;20032;-68
2022/03/25 00:21:48;;;;;;;85.13;40.65;;;;;;;5.93;62.64;101156.34;5067641;28;20023;-68
2022/03/25 00:24:13;;;;;;;92.35;43.20;;;;;;;5.92;63.00;101153.75;5066974;28;20037;-70
2022/03/25 00:26:39;;;;;;;80.53;38.83;;;;;;;5.88;63.12;101147.78;5071928;28;20063;-66
2022/03/25 00:29:04;;;;;;;84.20;40.47;;;;;;;5.89;63.32;101149.47;5071416;28;20067;-69
2022/03/25 00:31:30;;;;;;;84.05;40.47;;;;;;;5.88;62.94;101150.38;5040104;28;20375;-68
2022/03/25 00:33:55;;;;;;;91.72;41.63;;;;;;;5.85;63.85;101147.03;5071145;28;20035;-69
2022/03/25 00:36:23;;;;;;;88.47;41.40;;;;;;;5.83;63.53;101149.69;5070923;28;20060;-68
2022/03/25 00:38:49;;;;;;;86.57;41.55;;;;;;;5.80;63.93;101142.00;5040299;28;20115;-67
2022/03/25 00:41:16;;;;;;;88.28;41.78;;;;;;;5.76;63.70;101143.00;5071072;28;20040;-69
2022/03/25 00:43:42;;;;;;;90.07;41.35;;;;;;;5.76;64.12;101145.59;5070602;28;20130;-69
2022/03/25 00:46:09;;;;;;;81.43;41.17;;;;;;;5.81;63.53;101139.31;5073457;28;20020;-69
2022/03/25 00:48:34;;;;;;;83.53;43.15;;;;;;;5.73;63.85;101136.13;5068476;28;20044;-70
2022/03/25 00:51:00;;;;;;;88.00;42.33;;;;;;;5.63;63.68;101133.88;5069579;28;20401;-67
2022/03/25 00:53:25;;;;;;;88.85;43.33;;;;;;;5.52;64.14;101129.03;5070730;28;20096;-67
2022/03/25 00:55:52;;;;;;;91.25;43.97;;;;;;;5.49;64.32;101131.75;5072065;28;20111;-68
2022/03/25 00:58:18;;;;;;;86.55;42.00;;;;;;;5.42;64.48;101125.88;5072196;28;20028;-69
2022/03/25 01:00:44;;;;;;;92.28;39.53;;;;;;;5.42;65.09;101125.88;5053641;28;20036;-69
2022/03/25 01:03:10;;;;;;;85.65;40.70;;;;;;;5.39;65.03;101131.19;5053250;28;20078;-68
2022/03/25 01:05:35;;;;;;;82.20;40.83;;;;;;;5.36;65.17;101123.47;5071090;28;20028;-69
2022/03/25 01:08:00;;;;;;;82.63;40.35;;;;;;;5.32;64.83;101127.06;5070147;28;20104;-67
2022/03/25 01:10:26;;;;;;;87.57;41.30;;;;;;;5.26;64.67;101122.06;5071466;28;20158;-68
2022/03/25 01:12:51;;;;;;;82.60;41.10;;;;;;;5.24;65.49;101122.13;5071075;28;20037;-69
2022/03/25 01:15:16;;;;;;;88.47;41.55;;;;;;;5.25;65.99;101122.97;5071504;28;20082;-67
2022/03/25 01:17:42;;;;;;;81.20;40.05;;;;;;;5.27;65.68;101119.41;5053174;28;20036;-70
2022/03/25 01:20:09;;;;;;;84.78;41.65;;;;;;;5.22;65.86;101129.09;5071866;28;20035;-71
2022/03/25 01:22:35;;;;;;;80.22;39.65;;;;;;;5.22;65.73;101130.84;5071664;28;20474;-68
2022/03/25 01:25:00;;;;;;;86.30;41.10;;;;;;;5.29;65.79;101125.41;5072158;28;20047;-67
2022/03/25 01:27:25;;;;;;;79.72;40.47;;;;;;;5.27;65.96;101123.78;5070490;28;20043;-68
2022/03/25 01:29:51;;;;;;;81.22;38.78;;;;;;;5.20;65.71;101120.50;5063130;28;20559;-67
2022/03/25 01:32:16;;;;;;;87.25;40.17;;;;;;;5.17;66.22;101130.16;5068069;28;20041;-67
2022/03/25 01:34:41;;;;;;;78.65;39.10;;;;;;;5.05;65.70;101132.22;5071316;28;20032;-68
2022/03/25 01:37:07;;;;;;;82.40;40.03;;;;;;;4.93;66.37;101123.94;5081560;28;20084;-69
2022/03/25 01:39:32;;;;;;;79.78;39.67;;;;;;;4.92;66.58;101127.44;5077247;28;20086;-69
2022/03/25 01:41:59;;;;;;;77.40;37.65;;;;;;;4.87;67.71;101126.75;5078675;28;20029;-69
2022/03/25 01:44:26;;;;;;;80.53;40.10;;;;;;;4.80;67.28;101119.13;5070720;28;20575;-68
2022/03/25 01:46:56;;;;;;;74.30;39.13;;;;;;;4.75;67.24;101120.16;5070331;28;20092;-67
2022/03/25 01:49:22;;;;;;;88.03;40.35;;;;;;;4.66;67.43;101118.66;5071780;28;20125;-68
2022/03/25 01:51:53;;;;;;;78.95;39.90;;;;;;;4.57;68.06;101124.13;5074064;28;20028;-65
2022/03/25 01:54:26;;;;;;;84.75;38.78;;;;;;;4.51;67.65;101117.38;5070028;28;20059;-68
2022/03/25 01:57:07;;;;;;;81.47;38.83;;;;;;;4.44;68.08;101113.22;5070317;28;20032;-67
2022/03/25 01:59:33;;;;;;;75.22;38.30;;;;;;;4.41;68.78;101113.31;5052592;28;20085;-68
2022/03/25 02:02:01;;;;;;;87.40;39.15;;;;;;;4.40;68.66;101105.59;5070656;28;20032;-69
2022/03/25 02:04:28;;;;;;;74.63;37.65;;;;;;;4.38;68.23;101110.84;5070527;28;20028;-68
2022/03/25 02:06:54;;;;;;;77.45;38.47;;;;;;;4.38;69.12;101117.78;5070648;28;20505;-69
2022/03/25 02:09:19;;;;;;;75.00;38.60;;;;;;;4.32;68.75;101111.84;5051274;28;20033;-68
2022/03/25 02:11:45;;;;;;;80.57;39.15;;;;;;;4.30;69.18;101112.75;5065782;28;20043;-68
2022/03/25 02:14:11;;;;;;;77.10;37.20;;;;;;;4.30;69.05;101111.03;5069993;28;20433;-69
2022/03/25 02:16:42;;;;;;;78.47;39.17;;;;;;;4.28;69.52;101112.81;5071212;28;20026;-69
2022/03/25 02:19:10;;;;;;;75.85;38.13;;;;;;;4.28;69.51;101111.97;5072050;28;20021;-69
2022/03/25 02:21:38;;;;;;;76.72;40.25;;;;;;;4.33;69.29;101115.28;5071160;28;20033;-70
2022/03/25 02:24:06;;;;;;;73.47;38.97;;;;;;;4.35;69.15;101119.53;5070855;28;20032;-67
2022/03/25 02:26:32;;;;;;;80.68;38.65;;;;;;;4.30;69.35;101111.03;5070854;28;20410;-68
2022/03/25 02:28:59;;;;;;;79.38;39.38;;;;;;;4.29;69.58;101114.50;5062279;28;20126;-69
2022/03/25 02:31:24;;;;;;;73.60;35.30;;;;;;;4.28;69.28;101114.56;5068032;28;20051;-69
2022/03/25 02:33:54;;;;;;;81.43;37.47;;;;;;;4.24;69.47;101115.56;5070224;28;20024;-67
2022/03/25 02:36:19;;;;;;;;;;;;;;;4.22;69.64;101114.72;5070262;28;20028;-67
2022/03/25 02:38:44;;;;;;;72.55;35.38;;;;;;;4.18;69.62;101108.75;5069882;28;19958;-69
2022/03/25 02:41:09;;;;;;;76.75;38.65;;;;;;;4.15;70.55;101120.97;5051694;28;20408;-69
2022/03/25 02:43:35;;;;;;;73.13;36.63;;;;;;;4.11;70.08;101115.00;5070097;28;20032;-66
2022/03/25 02:46:00;;;;;;;78.72;38.08;;;;;;;4.03;69.94;101116.97;5071733;28;20465;-69
2022/03/25 02:48:25;;;;;;;80.03;39.13;;;;;;;3.97;70.76;101115.41;5069998;28;20028;-67
2022/03/25 02:50:50;;;;;;;70.95;36.63;;;;;;;3.90;70.47;101116.44;5070059;28;20048;-69
2022/03/25 02:53:16;;;;;;;74.90;37.38;;;;;;;3.87;71.07;101124.31;5069701;28;20028;-68
2022/03/25 02:55:42;;;;;;;76.95;38.80;;;;;;;3.82;71.25;101127.03;5069320;28;20040;-69
2022/03/25 02:58:08;;;;;;;84.30;39.70;;;;;;;3.79;71.08;101124.50;5070767;28;20032;-69
2022/03/25 03:00:34;;;;;;;90.40;41.10;;;;;;;3.77;71.04;101120.25;5073744;28;20032;-69
2022/03/25 03:03:00;;;;;;;78.05;38.20;;;;;;;3.74;71.43;101121.16;5073772;28;20036;-69
2022/03/25 03:05:27;;;;;;;82.13;39.97;;;;;;;3.75;71.70;101127.22;5074008;28;20379;-67
2022/03/25 03:07:53;;;;;;;84.47;38.65;;;;;;;3.76;71.89;101128.91;5072719;28;20054;-67
2022/03/25 03:10:19;;;;;;;84.22;38.78;;;;;;;3.73;71.57;101127.25;5073870;28;20028;-67
2022/03/25 03:12:45;;;;;;;85.03;39.65;;;;;;;3.74;71.57;101130.69;5072659;28;20040;-68
2022/03/25 03:15:12;;;;;;;90.22;39.28;;;;;;;3.68;71.13;101134.31;5072144;28;20120;-68
2022/03/25 03:17:39;;;;;;;77.75;37.78;;;;;;;3.66;71.28;101130.03;5055523;28;20029;-68
2022/03/25 03:20:06;;;;;;;74.97;36.05;;;;;;;3.62;71.98;101135.28;5072682;28;20105;-67
2022/03/25 03:22:31;;;;;;;77.65;37.75;;;;;;;3.57;72.31;101142.34;5073128;28;20054;-67
2022/03/25 03:24:56;;;;;;;78.13;38.38;;;;;;;3.56;72.98;101132.88;5072356;28;20040;-69
2022/03/25 03:27:22;;;;;;;79.07;39.08;;;;;;;3.63;72.32;101133.53;5072482;28;20085;-65
2022/03/25 03:29:47;;;;;;;76.10;37.13;;;;;;;3.59;72.36;101137.09;5072167;28;20040;-68
2022/03/25 03:32:12;;;;;;;72.60;36.65;;;;;;;3.55;72.67;101140.66;5073343;28;20391;-68
2022/03/25 03:34:38;;;;;;;71.32;37.10;;;;;;;3.49;73.26;101138.25;5076326;28;20016;-69
2022/03/25 03:37:04;;;;;;;73.18;36.25;;;;;;;3.44;72.90;101135.72;5077974;28;20354;-69
2022/03/25 03:39:29;;;;;;;71.97;32.90;;;;;;;3.56;71.23;101137.16;5071316;28;20031;-70
2022/03/25 03:41:55;;;;;;;80.07;33.38;;;;;;;3.60;71.57;101131.06;5071659;28;20112;-69
2022/03/25 03:44:20;;;;;;;72.78;35.70;;;;;;;3.56;72.29;101135.47;5052318;28;20498;-67
2022/03/25 03:46:46;;;;;;;77.97;34.83;;;;;;;3.53;73.17;101126.91;5071621;28;20165;-68
2022/03/25 03:49:11;;;;;;;78.50;36.38;;;;;;;3.51;73.20;101132.09;5053503;28;20017;-67
2022/03/25 03:51:36;;;;;;;81.90;36.05;;;;;;;3.47;72.82;101132.22;5070113;28;20067;-70
2022/03/25 03:54:03;;;;;;;76.50;36.63;;;;;;;3.40;72.96;101131.50;5073700;28;20038;-69
2022/03/25 03:56:29;;;;;;;71.40;36.30;;;;;;;3.36;73.18;101132.47;5069897;28;20036;-68
2022/03/25 03:58:54;;;;;;;76.93;37.30;;;;;;;3.34;73.34;101129.94;5054582;28;20044;-67
2022/03/25 04:01:19;;;;;;;81.53;37.10;;;;;;;3.25;72.64;101135.31;5071173;28;20028;-68
2022/03/25 04:03:45;;;;;;;88.80;36.63;;;;;;;3.13;73.06;101139.03;5070949;28;20032;-69
2022/03/25 04:06:10;;;;;;;77.20;36.70;;;;;;;3.09;73.32;101141.75;5070388;28;20101;-68
2022/03/25 04:08:36;;;;;;;82.05;37.65;;;;;;;3.07;73.72;101141.75;5069501;28;20028;-67
2022/03/25 04:11:02;;;;;;;87.65;36.15;;;;;;;3.05;74.01;101140.97;5069466;28;20032;-65
2022/03/25 04:13:28;;;;;;;73.95;37.00;;;;;;;3.09;73.88;101152.94;5052189;28;20027;-66
2022/03/25 04:15:53;;;;;;;87.05;37.88;;;;;;;3.09;73.83;101141.75;5071385;28;20024;-67
2022/03/25 04:18:18;;;;;;;79.30;35.15;;;;;;;3.08;74.02;101153.00;5052683;28;20059;-68
2022/03/25 04:20:44;;;;;;;73.68;33.45;;;;;;;3.05;73.65;101148.72;5071536;28;20497;-68
2022/03/25 04:23:09;;;;;;;70.95;30.45;;;;;;;3.02;73.25;101146.19;5070509;28;20059;-68
2022/03/25 04:25:34;;;;;;;60.13;29.90;;;;;;;3.09;72.15;101146.91;5071358;28;20107;-67
2022/03/25 04:28:00;;;;;;;69.03;29.55;;;;;;;3.11;72.37;101145.97;5051871;28;20108;-65
2022/03/25 04:30:27;;;;;;;60.30;28.65;;;;;;;3.11;72.05;101151.16;5071054;28;20032;-68
2022/03/25 04:32:53;;;;;;;61.38;27.73;;;;;;;3.10;71.47;101144.28;5071781;28;20040;-66
2022/03/25 04:35:20;;;;;;;59.55;27.92;;;;;;;3.11;70.87;101155.50;5071155;28;20463;-69
2022/03/25 04:37:46;;;;;;;72.43;30.55;;;;;;;3.09;71.11;101152.09;5071796;28;20055;-69
2022/03/25 04:40:17;;;;;;;59.38;27.77;;;;;;;3.06;71.17;101147.84;5072267;28;20537;-68
2022/03/25 04:42:43;;;;;;;64.30;28.90;;;;;;;3.03;72.07;101147.91;5071574;28;20124;-69
2022/03/25 04:45:09;;;;;;;59.72;27.80;;;;;;;3.04;70.88;101157.41;5070174;28;20450;-68
2022/03/25 04:47:34;;;;;;;59.50;27.98;;;;;;;3.02;70.98;101156.56;5071030;28;20482;-69
2022/03/25 04:49:59;;;;;;;72.32;28.27;;;;;;;3.02;71.13;101160.91;5070765;28;20158;-68
2022/03/25 04:52:25;;;;;;;57.45;26.25;;;;;;;3.03;70.88;101158.25;5072677;28;20497;-70
2022/03/25 04:54:50;;;;;;;57.72;27.33;;;;;;;3.03;71.41;101168.63;5071856;28;20107;-69
2022/03/25 04:57:16;;;;;;;59.85;25.88;;;;;;;3.03;70.56;101166.03;5070221;28;20059;-70
2022/03/25 04:59:41;;;;;;;65.30;29.23;;;;;;;2.98;71.32;101167.03;5065361;28;20041;-68
2022/03/25 05:02:09;;;;;;;65.22;31.70;;;;;;;2.96;72.20;101174.81;5070896;28;20028;-69
2022/03/25 05:04:34;;;;;;;62.25;28.13;;;;;;;2.97;71.47;101173.09;5064286;28;20040;-67
2022/03/25 05:07:00;;;;;;;65.07;27.00;;;;;;;2.93;71.51;101180.09;5071507;28;20056;-66
2022/03/25 05:09:25;;;;;;;61.42;27.65;;;;;;;2.89;72.23;101176.72;5070861;28;20414;-70
2022/03/25 05:11:50;;;;;;;69.20;30.98;;;;;;;2.91;72.08;101182.69;5067554;28;20037;-68
2022/03/25 05:14:16;;;;;;;57.42;27.52;;;;;;;2.90;72.10;101188.78;5066798;28;20052;-69
2022/03/25 05:16:41;;;;;;;55.00;27.00;;;;;;;2.94;71.27;101180.94;5069378;28;20032;-67
2022/03/25 05:19:07;;;;;;;59.58;24.77;;;;;;;2.94;71.44;101192.16;5070402;28;20040;-68
2022/03/25 05:21:32;;;;;;;52.15;24.65;;;;;;;2.90;71.14;101190.50;5064520;28;20053;-69
2022/03/25 05:23:57;;;;;;;50.55;25.92;;;;;;;2.86;71.98;101192.31;5051250;28;20033;-69
2022/03/25 05:26:22;;;;;;;60.47;28.48;;;;;;;2.86;72.20;101200.09;5070040;28;20036;-68
2022/03/25 05:28:48;;;;;;;54.63;25.10;;;;;;;2.85;71.59;101202.69;5072524;28;20037;-69
2022/03/25 05:31:13;;;;;;;65.40;28.63;;;;;;;2.81;71.82;101204.47;5070941;28;20390;-69
2022/03/25 05:33:38;;;;;;;74.10;27.90;;;;;;;2.81;72.03;101203.63;5069978;28;20127;-66
2022/03/25 05:36:04;;;;;;;67.20;29.65;;;;;;;2.84;72.33;101206.16;5068464;28;20052;-69
2022/03/25 05:38:30;;;;;;;67.72;29.02;;;;;;;2.86;71.92;101207.00;5069806;28;20517;-70
2022/03/25 05:40:56;;;;;;;75.85;28.80;;;;;;;2.85;72.86;101206.13;5051314;28;20033;-69
2022/03/25 05:43:21;;;;;;;69.95;30.27;;;;;;;2.90;72.33;101206.06;5068109;28;20559;-69
2022/03/25 05:45:47;;;;;;;82.93;30.58;;;;;;;2.95;72.47;101209.38;5068875;28;20502;-70
2022/03/25 05:48:12;;;;;;;70.22;28.45;;;;;;;2.97;72.15;101210.22;5067686;28;20039;-67
2022/03/25 05:50:37;;;;;;;74.55;31.05;;;;;;;2.99;71.66;101223.97;5067786;28;20036;-69
2022/03/25 05:53:03;;;;;;;73.80;31.20;;;;;;;3.00;72.15;101215.31;5068285;28;20025;-67
2022/03/25 05:55:28;;;;;;;57.63;27.27;;;;;;;3.04;71.75;101221.28;5068858;28;20020;-68
2022/03/25 05:57:53;;;;;;;57.40;24.95;;;;;;;3.09;71.76;101227.25;5066931;28;20016;-69
2022/03/25 06:00:19;;;;;;;65.28;24.67;;;;;;;3.19;71.23;101223.59;5067768;28;20103;-67
2022/03/25 06:02:45;;;;;;;48.45;23.75;;;;;;;3.68;75.58;101229.41;5051022;28;20413;-68
2022/03/25 06:05:11;;;;;;;55.53;21.67;;;;;;;4.14;68.62;101226.53;5067739;28;20097;-70
2022/03/25 06:07:38;;;;;;;55.22;22.58;;;;;;;4.46;66.45;101233.50;5067961;28;20035;-69
2022/03/25 06:10:06;;;;;;;46.50;23.25;;;;;;;4.38;66.01;101229.44;5069622;28;20039;-70
2022/03/25 06:12:31;;;;;;;52.58;22.25;;;;;;;4.35;67.63;101231.19;5068865;28;20028;-67
2022/03/25 06:14:57;;;;;;;52.08;22.77;;;;;;;4.38;65.32;101232.03;5049781;28;20106;-69
2022/03/25 06:17:22;;;;;;;49.83;22.02;;;;;;;4.22;65.69;101228.94;5068689;28;20518;-69
2022/03/25 06:19:47;;;;;;;51.78;22.15;;;;;;;4.09;65.63;101236.19;5069528;28;20127;-68
2022/03/25 06:22:12;;;;;;;49.40;20.73;;;;;;;4.02;65.36;101232.06;5069793;28;20070;-67
2022/03/25 06:24:38;;;;;;;55.33;22.52;;;;;;;3.98;65.83;101227.81;5081646;22;21125;-69
2022/03/25 06:27:03;;;;;;;50.45;20.35;;;;;;;3.99;65.61;101235.56;5067449;28;20128;-71
2022/03/25 06:29:29;;;;;;;59.92;22.55;;;;;;;4.04;65.55;101235.44;5066568;28;20082;-70
2022/03/25 06:31:54;;;;;;;47.67;20.25;;;;;;;4.06;65.28;101234.53;5069063;28;20063;-69
2022/03/25 06:34:23;;;;;;;45.80;20.00;;;;;;;4.06;65.00;101231.94;5055960;28;20028;-71
2022/03/25 06:36:49;;;;;;;49.17;22.08;;;;;;;4.05;64.96;101221.59;5075919;28;20020;-68
2022/03/25 06:39:15;;;;;;;53.13;20.40;;;;;;;4.06;64.99;101225.88;5074545;28;20028;-71
2022/03/25 06:41:41;;;;;;;47.53;21.52;;;;;;;4.10;65.29;101230.97;5074075;28;20040;-70
2022/03/25 06:44:06;;;;;;;50.28;21.23;;;;;;;4.16;64.97;101229.13;5074119;28;20039;-69
2022/03/25 06:46:32;;;;;;;52.22;22.23;;;;;;;4.21;65.00;101235.03;5073915;28;20406;-69
2022/03/25 06:48:58;;;;;;;51.92;21.45;;;;;;;4.27;64.61;101234.88;5074812;28;20492;-70
2022/03/25 06:51:23;;;;;;;55.72;20.45;;;;;;;4.35;64.56;101233.78;5056558;28;20052;-69
2022/03/25 06:53:49;;;;;;;43.75;19.20;;;;;;;4.42;64.23;101226.69;5074231;28;20525;-70
2022/03/25 06:56:15;;;;;;;44.05;21.35;;;;;;;4.47;63.98;101229.16;5055766;28;20102;-70
2022/03/25 06:58:41;;;;;;;55.78;22.77;;;;;;;4.52;64.10;101228.13;5073838;28;20033;-70
2022/03/25 07:01:07;;;;;;;53.00;20.23;;;;;;;4.60;63.72;101233.16;5074389;28;20020;-68
2022/03/25 07:03:33;;;;;;;42.75;20.80;;;;;;;4.66;63.77;101234.72;5073694;28;20028;-68
2022/03/25 07:06:00;;;;;;;48.20;21.65;;;;;;;4.71;63.60;101236.31;5074137;28;20032;-69
2022/03/25 07:08:30;;;;;;;42.45;20.23;;;;;;;4.81;63.15;101245.53;5073780;28;20109;-68
2022/03/25 07:10:56;;;;;;;49.97;22.40;;;;;;;4.89;63.47;101241.88;5052841;28;20546;-69
2022/03/25 07:13:22;;;;;;;49.03;21.30;;;;;;;5.00;62.94;101252.81;5055903;28;20032;-68
2022/03/25 07:15:47;;;;;;;49.50;22.42;;;;;;;5.05;63.03;101254.41;5074755;28;20402;-70
2022/03/25 07:18:13;;;;;;;55.20;21.17;;;;;;;5.15;62.71;101264.53;5074369;28;20425;-70
2022/03/25 07:20:38;;;;;;;40.17;20.65;;;;;;;5.22;62.07;101253.06;5074892;28;20029;-70
2022/03/25 07:23:04;;;;;;;44.85;21.25;;;;;;;5.32;61.77;101262.28;5073896;28;20086;-70
2022/03/25 07:25:31;;;;;;;52.33;22.48;;;;;;;5.39;61.99;101266.41;5074231;28;20025;-70
2022/03/25 07:27:56;;;;;;;44.50;20.98;;;;;;;5.44;61.69;101264.53;5055754;28;20082;-70
2022/03/25 07:30:22;;;;;;;49.30;21.80;;;;;;;5.53;61.37;101266.03;5066473;28;20493;-72
2022/03/25 07:32:48;;;;;;;52.95;22.77;;;;;;;5.58;61.54;101266.72;5075414;28;20089;-69
2022/03/25 07:35:14;;;;;;;51.60;22.23;;;;;;;5.62;61.47;101270.09;5074560;28;20039;-70
2022/03/25 07:37:41;;;;;;;46.42;21.48;;;;;;;5.66;61.26;101269.09;5056988;28;20020;-69
2022/03/25 07:40:09;;;;;;;47.80;23.23;;;;;;;5.71;60.99;101262.84;5057727;28;20043;-70
2022/03/25 07:42:34;;;;;;;51.90;22.27;;;;;;;5.77;61.25;101273.06;5087111;28;20024;-70
2022/03/25 07:45:01;;;;;;;52.10;22.90;;;;;;;5.85;61.03;101272.81;5096183;28;20036;-72
2022/03/25 07:47:26;;;;;;;46.63;22.42;;;;;;;5.92;61.20;101274.34;5078994;28;20043;-69
2022/03/25 07:49:52;;;;;;;62.10;24.88;;;;;;;6.04;60.73;101270.50;5073217;28;20041;-71
2022/03/25 07:52:17;;;;;;;48.38;21.33;;;;;;;6.11;60.17;101285.03;5072659;28;20040;-69
2022/03/25 07:54:42;;;;;;;52.70;23.48;;;;;;;6.20;60.51;101279.53;5071373;28;20040;-69
2022/03/25 07:57:08;;;;;;;47.25;22.83;;;;;;;6.28;59.94;101287.09;5070526;28;20459;-69
2022/03/25 07:59:33;;;;;;;50.35;24.35;;;;;;;6.39;59.40;101277.16;5071032;28;20494;-69
2022/03/25 08:01:58;;;;;;;59.83;25.38;;;;;;;6.48;59.03;101284.66;5070784;28;20029;-69
2022/03/25 08:04:24;;;;;;;55.88;23.67;;;;;;;6.56;59.33;101292.22;5070154;28;20099;-71
2022/03/25 08:06:54;;;;;;;56.70;23.73;;;;;;;6.65;59.14;101296.28;5070513;28;20065;-71
2022/03/25 08:09:20;;;;;;;60.47;23.67;;;;;;;6.78;58.62;101305.38;5070160;28;20024;-70
2022/03/25 08:11:48;;;;;;;49.85;23.08;;;;;;;6.88;58.14;101306.75;5062730;28;20724;-70
2022/03/25 08:14:15;;;;;;;58.03;25.67;;;;;;;6.97;57.78;101306.44;5063541;28;20068;-72
2022/03/25 08:16:42;;;;;;;53.30;25.60;;;;;;;7.10;56.96;101313.81;5063987;28;20037;-71
2022/03/25 08:19:07;;;;;;;57.35;24.23;;;;;;;7.17;56.72;101312.69;5064467;28;20028;-70
2022/03/25 08:21:33;;;;;;;47.72;24.00;;;;;;;7.26;56.70;101318.41;5069264;28;20082;-69
2022/03/25 08:29:27;;;;;;;52.17;25.00;;;;;;;7.59;55.23;101319.84;5065936;28;20082;-69
2022/03/25 08:31:53;;;;;;;60.85;24.10;;;;;;;7.68;55.08;101317.72;5070517;28;20045;-73
2022/03/25 08:34:18;;;;;;;48.95;25.75;;;;;;;7.79;54.74;101321.66;5070933;28;20028;-69
2022/03/25 08:36:45;;;;;;;61.35;25.83;;;;;;;7.88;54.22;101322.16;5069878;28;20521;-70
2022/03/25 08:39:11;;;;;;;55.25;23.98;;;;;;;7.98;53.76;101320.91;5052206;28;20036;-70
2022/03/25 08:41:37;;;;;;;53.33;24.20;;;;;;;8.08;53.82;101325.75;5070073;28;20036;-72
2022/03/25 08:44:02;;;;;;;53.72;25.48;;;;;;;8.19;53.19;101323.56;5072446;28;20032;-68
2022/03/25 08:46:28;;;;;;;67.93;25.77;;;;;;;8.33;52.67;101320.41;5045299;28;20533;-71
2022/03/25 08:48:53;;;;;;;58.58;24.58;;;;;;;8.43;52.76;101320.00;5070056;28;20107;-70
2022/03/25 08:51:19;;;;;;;53.88;25.55;;;;;;;8.58;52.41;101336.81;5069394;28;20032;-70
2022/03/25 08:53:45;;;;;;;58.35;24.52;;;;;;;8.70;51.89;101330.19;5069818;28;20085;-70
2022/03/25 08:56:11;;;;;;;47.90;23.23;;;;;;;8.81;51.07;101329.75;5069425;28;20131;-70
2022/03/25 08:58:36;;;;;;;47.15;22.63;;;;;;;8.92;51.59;101335.38;5069675;28;20095;-70
2022/03/25 09:01:02;;;;;;;54.92;24.75;;;;;;;9.00;50.93;101338.50;5070205;28;20029;-71
2022/03/25 09:03:28;;;;;;;53.22;24.35;;;;;;;9.10;51.15;101336.34;5069635;28;20033;-71
2022/03/25 09:05:53;;;;;;;54.85;24.73;;;;;;;9.17;50.67;101335.16;5069453;28;20630;-70
2022/03/25 09:08:18;;;;;;;54.05;23.95;;;;;;;9.26;50.45;101326.88;5051677;28;20032;-69
2022/03/25 09:10:44;;;;;;;46.55;22.48;;;;;;;9.37;50.22;101329.84;5069263;28;20043;-70
2022/03/25 09:13:11;;;;;;;55.53;22.48;;;;;;;9.59;48.82;101332.34;5071867;28;20482;-71
2022/03/25 09:15:36;;;;;;;43.85;21.40;;;;;;;9.65;48.96;101329.47;5069104;28;20032;-70
2022/03/25 09:18:01;;;;;;;42.85;22.77;;;;;;;9.73;48.93;101325.63;5069117;28;20047;-70
2022/03/25 09:20:27;;;;;;;56.15;22.38;;;;;;;9.83;48.07;101329.53;5069867;28;20064;-69
2022/03/25 09:22:54;;;;;;;48.28;23.27;;;;;;;9.96;48.39;101328.00;5067046;28;20828;-72
2022/03/25 09:25:19;;;;;;;51.72;21.63;;;;;;;10.05;48.17;101335.47;5069335;28;20108;-70
2022/03/25 09:27:45;;;;;;;48.47;22.13;;;;;;;10.13;48.29;101333.31;5069017;28;20485;-70
2022/03/25 09:30:11;;;;;;;52.92;23.88;;;;;;;10.23;47.94;101331.06;5067846;28;20512;-70
2022/03/25 09:32:36;;;;;;;43.38;22.42;;;;;;;10.45;47.82;101332.69;5069443;28;20036;-70
2022/03/25 09:35:13;;;;;;;52.55;23.63;;;;;;;10.63;46.71;101334.38;5068807;28;20117;-71
2022/03/25 09:37:49;;;;;;;51.45;22.75;;;;;;;10.76;46.40;101334.63;5069205;28;20403;-71
2022/03/25 09:40:25;;;;;;;55.70;23.05;;;;;;;10.81;45.95;101341.31;5068635;28;20117;-69
2022/03/25 09:42:52;;;;;;;55.17;23.85;;;;;;;10.88;46.36;101340.09;5050946;28;20151;-71
2022/03/25 09:45:20;;;;;;;49.00;22.15;;;;;;;10.98;45.40;101344.88;5069204;28;20036;-71
2022/03/25 09:47:47;;;;;;;44.13;22.85;;;;;;;10.99;45.79;101343.94;5068521;28;20040;-68
2022/03/25 09:50:15;;;;;;;46.05;22.13;;;;;;;11.06;45.79;101342.69;5068143;28;20037;-72
2022/03/25 09:52:43;;;;;;;54.35;23.30;;;;;;;11.22;44.14;101346.19;5049845;28;20565;-72
2022/03/25 09:55:09;;;;;;;51.08;21.42;;;;;;;11.29;43.78;101344.94;5069652;28;20031;-72
2022/03/25 09:57:35;;;;;;;51.22;20.42;;;;;;;11.36;42.98;101343.69;5050408;28;20043;-71
2022/03/25 10:00:00;;;;;;;48.30;22.23;;;;;;;11.47;42.80;101344.91;5068642;28;20433;-73
2022/03/25 10:02:26;;;;;;;56.38;21.65;;;;;;;11.58;42.36;101345.19;5068982;28;20079;-69
2022/03/25 10:04:55;;;;;;;44.95;21.42;;;;;;;11.75;41.53;101347.72;5052808;28;20032;-70
2022/03/25 10:07:21;;;;;;;40.80;19.55;;;;;;;11.92;41.04;101349.47;5067272;28;20397;-73
2022/03/25 10:10:16;;;;;;;42.67;19.98;;;;;;;12.09;40.48;101354.63;5064538;28;20493;-72
2022/03/25 10:12:44;;;;;;;42.60;20.45;;;;;;;12.29;40.68;101348.25;5040808;28;20040;-71
2022/03/25 10:15:20;;;;;;;46.80;19.00;;;;;;;12.29;40.13;101345.63;5059712;28;20409;-69
2022/03/25 10:18:01;;;;;;;44.53;20.35;;;;;;;12.34;39.94;101346.19;5044132;28;20268;-71
2022/03/25 10:20:30;;;;;;;40.05;18.02;;;;;;;12.38;39.61;101346.00;5061797;28;20143;-72
2022/03/25 10:22:56;;;;;;;42.60;16.60;;;;;;;12.48;37.57;101350.66;5062011;28;20045;-71
2022/03/25 10:25:45;;;;;;;49.75;17.17;;;;;;;12.60;37.39;101347.31;5060136;28;20033;-72
2022/03/25 10:28:24;;;;;;;;;;;;;;;12.66;37.11;101350.53;5040978;28;20063;-71
2022/03/25 10:30:52;;;;;;;34.25;14.07;;;;;;;12.75;36.96;101350.81;5061237;28;19932;-71
2022/03/25 10:33:23;;;;;;;42.42;15.38;;;;;;;12.83;36.15;101351.25;5061767;28;20124;-71
2022/03/25 10:35:58;;;;;;;37.72;16.20;;;;;;;12.84;35.93;101346.81;5061969;28;20059;-70
2022/03/25 10:38:25;;;;;;;29.80;15.25;;;;;;;12.86;36.22;101341.44;5060082;28;20139;-71
2022/03/25 10:40:57;;;;;;;27.92;12.77;;;;;;;12.96;35.98;101346.06;5061925;28;20067;-71
2022/03/25 10:43:24;;;;;;;29.95;12.07;;;;;;;13.13;36.07;101352.97;5060526;28;20111;-72
2022/03/25 10:45:49;;;;;;;42.35;15.27;;;;;;;13.11;35.68;101349.56;5061703;28;20097;-72
2022/03/25 10:48:22;;;;;;;31.77;13.55;;;;;;;13.16;35.27;101344.03;5059719;28;20547;-72
2022/03/25 10:51:00;;;;;;;33.42;13.95;;;;;;;13.27;34.89;101346.88;5042418;28;20041;-71
2022/03/25 10:53:28;;;;;;;32.28;13.43;;;;;;;13.17;34.76;101343.09;5061140;28;20249;-72
2022/03/25 10:55:55;;;;;;;37.25;12.90;;;;;;;13.23;35.18;101348.84;5061300;28;20133;-74
2022/03/25 10:58:21;;;;;;;30.35;13.18;;;;;;;13.38;35.09;101347.06;5059096;28;20134;-71
2022/03/25 11:00:47;;;;;;;30.38;12.40;;;;;;;13.42;34.86;101335.44;5061523;28;20047;-72
2022/03/25 11:03:16;;;;;;;37.05;13.95;;;;;;;13.59;34.64;101344.06;5061376;28;20037;-76
2022/03/25 11:05:43;;;;;;;26.83;12.63;;;;;;;13.59;34.86;101341.41;5059986;28;20123;-73
2022/03/25 11:08:09;;;;;;;29.05;12.75;;;;;;;13.64;34.32;101344.59;5060043;28;20028;-73
2022/03/25 11:10:35;;;;;;;28.20;13.05;;;;;;;13.49;35.06;101336.72;5061671;28;20081;-70
2022/03/25 11:13:03;;;;;;;32.05;12.93;;;;;;;13.50;35.65;101343.69;5061772;28;20060;-75
2022/03/25 11:15:31;;;;;;;27.92;11.25;;;;;;;13.61;34.95;101337.75;5062744;28;20043;-73
2022/03/25 11:17:57;;;;;;;33.50;12.15;;;;;;;13.79;34.44;101338.34;5064992;28;20123;-74
2022/03/25 11:20:25;;;;;;;29.38;12.88;;;;;;;13.77;35.23;101345.53;5074983;28;20063;-72